METAR Data
IDs: Format: Raw Decoded Include TAF

Data at: 1952 UTC 23 Oct 2021

KGOO 231930Z AUTO 00000KT 10SM FEW045 FEW055 SCT065 09/07 A2997 RMK A01
KGOO 231915Z AUTO VRB05KT 10SM FEW046 FEW055 SCT065 09/06 A2996 RMK A01
KGOO 231855Z AUTO VRB05KT 10SM FEW047 SCT065 BKN075 10/07 A2997 RMK A01
KGOO 231835Z AUTO 00000KT 10SM FEW034 FEW040 BKN070 09/06 A2997 RMK A01
KGOO 231815Z AUTO 00000KT 10SM FEW030 BKN037 BKN049 09/06 A2997 RMK A01
KGOO 231755Z AUTO 00000KT 10SM FEW023 SCT038 BKN049 09/06 A2999 RMK A01
KGOO 231735Z AUTO 00000KT 10SM SCT050 BKN060 BKN070 09/06 A2998 RMK A01
KGOO 231710Z AUTO 15004KT 10SM SCT095 10/05 A2996 RMK A01
KGOO 231655Z AUTO 15004KT 10SM BKN095 10/05 A2996 RMK A01
KGOO 231635Z AUTO VRB03KT 10SM CLR 10/04 A2994 RMK A01
KGOO 231615Z AUTO 28003KT 10SM FEW100 FEW120 09/05 A2995 RMK A01
KGOO 231555Z AUTO 00000KT 10SM CLR 09/04 A2994 RMK A01
KGOO 231535Z AUTO 13004KT 10SM FEW100 08/03 A2993 RMK A01
KGOO 231515Z AUTO 11005KT 10SM CLR 08/03 A2992 RMK A01
KGOO 231455Z AUTO 00000KT 10SM CLR 08/03 A2993 RMK A01
KGOO 231435Z AUTO 11006KT 10SM CLR 08/03 A2992 RMK A01
KGOO 231415Z AUTO 11005KT 10SM CLR 08/03 A2993 RMK A01
KGOO 231355Z AUTO 10006KT 10SM CLR 08/03 A2993 RMK A01
KGOO 231335Z AUTO 10006KT 10SM CLR 08/04 A2994 RMK A01
KGOO 231315Z AUTO 10007KT 10SM SCT095 08/04 A2993 RMK A01
KGOO 231255Z AUTO 10007KT 10SM FEW080 SCT100 07/05 A2993 RMK A01
KGOO 231235Z AUTO 10006KT 10SM SCT065 BKN080 08/05 A2994 RMK A01
KGOO 231215Z AUTO 10006KT 10SM BKN065 OVC090 08/05 A2995 RMK A01
KGOO 231155Z AUTO 11006KT 10SM OVC090 08/06 A2995 RMK A01
KGOO 231130Z AUTO 10006KT 10SM FEW060 SCT065 BKN075 08/06 A2995 RMK A01
KGOO 231115Z AUTO 12006KT 10SM BKN065 OVC075 08/06 A2995 RMK A01
KGOO 231055Z AUTO 12004KT 10SM OVC070 08/07 A2996 RMK A01
KGOO 231030Z AUTO 11005KT 10SM SCT055 OVC070 08/07 A2995 RMK A01
KGOO 231015Z AUTO 12005KT 10SM BKN050 OVC065 08/07 A2996 RMK A01
KGOO 230955Z AUTO 13004KT 10SM FEW008 OVC055 08/07 A2997 RMK A01
KGOO 230935Z AUTO 00000KT 10SM SCT008 BKN035 OVC060 08/07 A2997 RMK A01
KGOO 230915Z AUTO 00000KT 10SM SCT009 BKN034 OVC041 08/07 A2998 RMK A01
KGOO 230855Z AUTO 00000KT 10SM BKN008 SCT018 OVC034 08/07 A2997 RMK A01
KGOO 230835Z AUTO 00000KT 10SM BKN008 BKN017 OVC036 08/07 A2996 RMK A01
KGOO 230815Z AUTO VRB04KT 10SM FEW008 SCT017 BKN038 08/07 A2996 RMK A01
KGOO 230755Z AUTO 12005KT 10SM SCT006 BKN039 OVC047 08/07 A2996 RMK A01
KGOO 230735Z AUTO 00000KT 10SM OVC006 08/07 A2997 RMK A01
KGOO 230710Z AUTO VRB03KT 10SM OVC006 08/08 A2997 RMK A01
KGOO 230655Z AUTO 14004KT 10SM BKN005 OVC008 08/08 A2997 RMK A01
KGOO 230635Z AUTO VRB03KT 10SM OVC005 08/08 A2997 RMK A01
KGOO 230615Z AUTO 00000KT 10SM OVC006 08/08 A2998 RMK A01
KGOO 230555Z AUTO VRB04KT 10SM OVC006 09/08 A2997 RMK A01
KGOO 230535Z AUTO 00000KT 10SM OVC008 08/08 A2997 RMK A01
KGOO 230515Z AUTO 15003KT 10SM BKN009 OVC014 09/08 A2998 RMK A01
KGOO 230455Z AUTO 14003KT 10SM BKN009 OVC014 09/07 A2997 RMK A01
KGOO 230435Z AUTO 14004KT 10SM FEW009 BKN014 OVC019 09/08 A2997 RMK A01
KGOO 230415Z AUTO 14003KT 10SM SCT015 BKN022 OVC032 09/08 A2997 RMK A01
KGOO 230355Z AUTO 14003KT 10SM SCT022 BKN032 OVC120 08/08 A2997 RMK A01
KGOO 230335Z AUTO 00000KT 10SM FEW022 OVC110 09/07 A2998 RMK A01
KGOO 230315Z AUTO 00000KT 10SM SCT022 SCT032 OVC120 09/07 A2998 RMK A01
KGOO 230255Z AUTO 13003KT 10SM SCT022 BKN028 OVC120 09/07 A2998 RMK A01
KGOO 230235Z AUTO 00000KT 10SM FEW022 BKN026 OVC040 09/07 A2998 RMK A01
KGOO 230215Z AUTO 00000KT 10SM SCT022 BKN028 OVC042 09/07 A2999 RMK A01
KGOO 230155Z AUTO 00000KT 10SM FEW024 BKN032 OVC040 09/07 A2998 RMK A01
KGOO 230135Z AUTO 00000KT 10SM OVC041 09/07 A2998 RMK A01
KGOO 230115Z AUTO 00000KT 10SM OVC042 09/07 A2999 RMK A01
KGOO 230055Z AUTO 00000KT 10SM OVC041 10/07 A2999 RMK A01
KGOO 230035Z AUTO 00000KT 10SM OVC039 10/07 A2999 RMK A01
KGOO 230015Z AUTO 00000KT 10SM BKN036 11/07 A2999 RMK A01
KGOO 222355Z AUTO 00000KT 10SM BKN037 11/07 A2999 RMK A01
KGOO 222335Z AUTO 00000KT 10SM BKN034 OVC039 11/07 A3000 RMK A01
KGOO 222315Z AUTO 00000KT 10SM FEW019 FEW023 OVC034 11/07 A3000 RMK A01
KGOO 222250Z AUTO 00000KT 10SM OVC032 11/08 A3000 RMK A01
KGOO 222235Z AUTO 00000KT 10SM OVC030 11/08 A3000 RMK A01
KGOO 222215Z AUTO 00000KT 10SM FEW018 OVC029 11/08 A3000 RMK A01
KGOO 222150Z AUTO VRB04G10KT 10SM SCT015 BKN027 OVC031 12/08 A3000 RMK A01
KGOO 222135Z AUTO 00000KT 10SM SCT014 OVC028 12/09 A3000 RMK A01
KGOO 222115Z AUTO 00000KT 10SM BKN029 12/08 A3000 RMK A01
KGOO 222055Z AUTO VRB04G10KT 10SM FEW012 SCT019 BKN029 13/09 A3000 RMK A01
KGOO 222035Z AUTO VRB05KT 10SM FEW009 SCT013 BKN019 11/09 A3001 RMK A01
KGOO 222010Z AUTO VRB04KT 10SM SCT007 BKN011 OVC030 11/09 A3001 RMK A01
KGOO 221955Z AUTO VRB03KT 10SM SCT007 BKN012 BKN023 11/10 A3002 RMK A01
KGOO 221930Z AUTO VRB04KT 10SM FEW007 SCT010 BKN014 11/10 A3002 RMK A01
KGOO 221915Z AUTO VRB04KT 10SM SCT007 BKN013 OVC023 10/09 A3002 RMK A01
KGOO 221855Z AUTO 00000KT 10SM BKN005 BKN008 OVC023 09/09 A3003 RMK A01
KGOO 221835Z AUTO VRB05KT 10SM BKN005 BKN015 OVC085 10/10 A3003 RMK A01
KGOO 221815Z AUTO VRB04KT 10SM BKN005 BKN015 OVC070 10/10 A3002 RMK A01
KGOO 221755Z AUTO 21004KT 10SM BKN004 BKN008 OVC070 09/09 A3002 RMK A01
KGOO 221735Z AUTO 00000G10KT 7SM BKN003 OVC006 09/09 A3001 RMK A01
KGOO 221710Z AUTO 00000KT 1/2SM BR OVC003 08/08 A3000 RMK A01
KGOO 221655Z AUTO 00000KT 3/4SM BR OVC003 08/08 A3000 RMK A01
KGOO 221635Z AUTO 00000KT 2 1/2SM BR BKN004 BKN029 OVC047 09/08 A2999 RMK A01
KGOO 221615Z AUTO 24005G15KT 3/4SM BR OVC003 08/08 A2999 RMK A01
KGOO 221555Z AUTO 25006G13KT 1/2SM FG OVC003 10/10 A2997 RMK A01
KGOO 221535Z AUTO VRB05G16KT 1/4SM FG OVC003 10/10 A2995 RMK A01
KGOO 221515Z AUTO 17010G21KT 140V200 1/4SM FG OVC003 11/10 A2995 RMK A01
KGOO 221455Z AUTO 18011G24KT 160V220 3/4SM BR OVC003 11/11 A2995 RMK A01
KGOO 221435Z AUTO VRB05G22KT 3/4SM BR OVC003 11/11 A2994 RMK A01
KGOO 221415Z AUTO VRB05G14KT 1SM BR OVC003 11/11 A2993 RMK A01
KGOO 221355Z AUTO VRB04G14KT 3/4SM BR OVC003 12/12 A2993 RMK A01
KGOO 221335Z AUTO 19007G16KT 150V230 1SM BR OVC003 12/12 A2992 RMK A01
KGOO 221315Z AUTO VRB04G15KT 1 1/4SM BR OVC002 12/12 A2992 RMK A01
KGOO 221255Z AUTO VRB05G11KT M1/4SM FG OVC002 12/12 A2992 RMK A01
KGOO 221230Z AUTO VRB05G13KT M1/4SM FG OVC002 12/12 A2991 RMK A01
KGOO 221215Z AUTO 16007G16KT 130V210 M1/4SM FG OVC002 12/12 A2992 RMK A01
KGOO 221155Z AUTO VRB04G12KT M1/4SM FG OVC002 13/12 A2994 RMK A01 VIS M1/4V5
KGOO 221135Z AUTO 16007G13KT 110V210 M1/4SM FG OVC002 13/13 A2993 RMK A01
KGOO 221115Z AUTO VRB06G14KT M1/4SM FG OVC002 13/13 A2994 RMK A01
KGOO 221055Z AUTO 14007G12KT 110V170 M1/4SM FG OVC002 13/13 A2996 RMK A01
KGOO 221035Z AUTO VRB05KT M1/4SM FG OVC002 13/13 A2998 RMK A01
KGOO 221015Z AUTO 00000G12KT M1/4SM FG OVC002 13/13 A2999 RMK A01
KGOO 220955Z AUTO VRB04KT M1/4SM FG OVC002 13/13 A2999 RMK A01
KGOO 220930Z AUTO VRB05KT 1/4SM FG OVC002 13/13 A2999 RMK A01
KGOO 220915Z AUTO VRB03KT 1/4SM FG OVC002 13/13 A3001 RMK A01
KGOO 220850Z AUTO VRB04KT 2SM BR OVC002 13/13 A3001 RMK A01
KGOO 220835Z AUTO VRB06G12KT 1/4SM FG OVC002 13/13 A3001 RMK A01
KGOO 220815Z AUTO VRB05KT 1/4SM FG OVC002 13/13 A3002 RMK A01
KGOO 220755Z AUTO VRB06KT 2 1/2SM BR OVC003 13/13 A3003 RMK A01